This is the latest recevied weather packets stored in our database for station/object KU5D-13. If no packets are shown the sender has not sent any weather packets the latest 10 day(s).
| Time | Temp. | Humidity | Pressure | Rain* | Wind** | Luminosity | Snow |
|---|---|---|---|---|---|---|---|
| 1778229015 | -1.11° C | 21% | 987.7 hPa | 0.76 mm | - | 0 W/m² | - |
| 1778224235 | 0° C | 20% | 986.8 hPa | 1.78 mm | - | 0 W/m² | - |
| 1778221215 | 1.11° C | 20% | 986.7 hPa | 1.52 mm | - | 0 W/m² | - |
| 1778215815 | 3.89° C | 21% | 987.7 hPa | 0 mm | - | 0 W/m² | - |
| 1778215235 | 4.44° C | 21% | 987.9 hPa | 0 mm | - | 0 W/m² | - |
| 1778212215 | 6.67° C | 22% | 989 hPa | 0 mm | - | 0 W/m² | - |
| 1778205615 | 11.67° C | 25% | 992.8 hPa | 0 mm | - | 0 W/m² | - |
| 1778203815 | 13.33° C | 27% | 994.2 hPa | 0 mm | - | 0 W/m² | - |
| 1778202616 | 14.44° C | 27% | 995.1 hPa | 0 mm | - | 0 W/m² | - |
| 1778199615 | 16.11° C | 30% | 997.7 hPa | 0 mm | - | 0 W/m² | - |
| 1778197815 | 17.78° C | 31% | 999.4 hPa | 0 mm | - | 0 W/m² | - |
| 1778196615 | 18.33° C | 32% | 1000.6 hPa | 0 mm | - | 0 W/m² | - |
| 1778191835 | 20° C | 37% | 1005.6 hPa | 0 mm | - | 52 W/m² | - |
| 1778190615 | 20.56° C | 38% | 1006.9 hPa | 0 mm | - | 97 W/m² | - |
| 1778190016 | 20.56° C | 39% | 1007.6 hPa | 0 mm | - | 124 W/m² | - |
| 1778188815 | 21.11° C | 40% | 1009 hPa | 0 mm | - | 187 W/m² | - |
| 1778186435 | 21.11° C | 42% | 1011.8 hPa | 0 mm | - | 339 W/m² | - |
| 1778185236 | 21.11° C | 44% | 1013.3 hPa | 0 mm | - | 424 W/m² | - |
| 1778184015 | 21.11° C | 45% | 1014.7 hPa | 0 mm | - | 511 W/m² | - |
| 1778181616 | 20.56° C | 47% | 1017.6 hPa | 0 mm | - | 681 W/m² | - |
| 1778177415 | 18.89° C | 52% | 1022.8 hPa | 0 mm | - | 916 W/m² | - |
| 1778173815 | 16.67° C | 56% | 1027.2 hPa | 0 mm | - | 999 W/m² | - |
| 1778173215 | 16.11° C | 56% | 1027.9 hPa | 0 mm | - | 1000 W/m² | - |
| 1778167815 | 12.22° C | 62% | 1034.3 hPa | 0 mm | - | 846 W/m² | - |
| 1778163635 | 8.89° C | 66% | 1038.8 hPa | 0 mm | - | 576 W/m² | - |
* Rain latest hour (hover to see other rain measurements)
** Current wind speed in m/s (hover to see current wind gust speed)